Stations météo

réclame
Mon MeteoGroup
S. Valentino Alla Muta, Italie (16008): Température de l'air & dewpoint: 15.10.2017 19:00:00 - 21.10.2017 19:00:00 (CEST)S. Valentino Alla Muta, Italie (16008): Vitesse du vent: 15.10.2017 19:00:00 - 21.10.2017 19:00:00 (CEST)S. Valentino Alla Muta, Italie (16008): Direction du vent: 15.10.2017 19:00:00 - 21.10.2017 19:00:00 (CEST)S. Valentino Alla Muta, Italie (16008): visibility: 15.10.2017 19:00:00 - 21.10.2017 19:00:00 (CEST)
Date & Time tt [°C] td [°C] ff [km/h] ff [knt] dd vv [km]
21.10.2017 19:00:00 8,8 6,2 11 6 S 8
21.10.2017 18:00:00 10,0 5,4 13 7 SW 9
21.10.2017 17:00:00 11,0 5,5 11 6 SW 10
21.10.2017 16:00:00 11,2 4,9 9 5 SSW 10
21.10.2017 15:00:00 11,8 5,9 13 7 SSW 10
21.10.2017 14:00:00 12,8 5,9 13 7 SSW 10
21.10.2017 13:00:00 15,2 -0,5 13 7 SSW 10
21.10.2017 12:00:00 13,4 1,1 9 5 N 10
21.10.2017 11:00:00 10,2 2,8 9 5 NNE 10
21.10.2017 10:00:00 7,8 2,1 11 6 N 10
21.10.2017 09:00:00 6,8 3,1 5 3 NNE 10
21.10.2017 08:00:00 6,8 3,1 5 3 NNE 10
21.10.2017 07:00:00 5,0 4,6 5 3 N 10
21.10.2017 06:00:00 5,2 4,9 0 0 N 10
21.10.2017 05:00:00 5,2 4,9 0 0 N 10
21.10.2017 04:00:00 5,0 4,0 0 0 N 10
21.10.2017 03:00:00 5,0 4,0 0 0 N 10
21.10.2017 02:00:00 5,0 3,8 0 0 N 10
21.10.2017 01:00:00 6,0 4,5 0 0 N 10
21.10.2017 00:00:00 6,0 4,5 0 0 N 10
20.10.2017 23:00:00 5,8 4,3 0 0 N 10
20.10.2017 22:00:00 6,0 3,8 0 0 N 10
20.10.2017 21:00:00 7,2 3,6 5 3 NNE 10
20.10.2017 20:00:00 7,4 3,3 5 3 NNE 10
20.10.2017 19:00:00 8,8 4,0 5 3 SSE 10
20.10.2017 18:00:00 10,0 4,4 8 4 SSW 10
20.10.2017 17:00:00 11,2 3,7 9 5 SSW 10
20.10.2017 16:00:00 12,2 2,9 15 8 S 10
20.10.2017 15:00:00 13,6 2,8 13 7 S 10
20.10.2017 14:00:00 13,8 3,0 13 7 S 10
20.10.2017 13:00:00 13,8 3,3 11 6 S 10
20.10.2017 12:00:00 13,2 4,6 5 3 SSW 10
20.10.2017 11:00:00 9,4 4,4 5 3 NNE 10
20.10.2017 10:00:00 5,8 5,5 5 3 NNW 10
20.10.2017 09:00:00 3,4 3,0 4 2 N 10
20.10.2017 08:00:00 3,8 3,4 0 0 N 10
20.10.2017 07:00:00 4,0 3,4 4 2 N 10
20.10.2017 06:00:00 4,0 3,7 0 0 N 10
20.10.2017 05:00:00 3,8 3,2 0 0 N 10
20.10.2017 04:00:00 3,8 3,1 4 2 NNE 10
20.10.2017 03:00:00 - - - - - -
20.10.2017 02:00:00 4,0 2,8 0 0 N 10
20.10.2017 01:00:00 4,4 2,9 0 0 N 10
20.10.2017 00:00:00 5,0 2,9 0 0 N 10
19.10.2017 23:00:00 6,4 4,1 0 0 N 10
19.10.2017 22:00:00 6,2 3,0 0 0 N 10
19.10.2017 21:00:00 6,8 3,2 0 0 N 10
19.10.2017 20:00:00 8,0 3,5 4 2 ESE 10
19.10.2017 19:00:00 8,4 2,8 4 2 SE 10
19.10.2017 18:00:00 10,0 2,1 9 5 SW 10
19.10.2017 17:00:00 10,8 0,8 9 5 SW 10
19.10.2017 16:00:00 12,2 1,2 15 8 S 10
19.10.2017 15:00:00 12,6 1,9 11 6 SSW 10
19.10.2017 14:00:00 12,4 1,7 11 6 SSW 10
19.10.2017 13:00:00 12,6 1,9 9 5 SSW 10
19.10.2017 12:00:00 11,6 1,5 8 4 N 10
19.10.2017 11:00:00 8,2 1,8 8 4 N 10
19.10.2017 10:00:00 3,8 1,7 9 5 NNE 10
19.10.2017 09:00:00 3,0 1,4 8 4 NNE 10
19.10.2017 08:00:00 3,0 1,5 8 4 NNE 10
19.10.2017 07:00:00 3,0 2,0 8 4 NNE 10
19.10.2017 06:00:00 3,2 2,3 5 3 NNE 10
19.10.2017 05:00:00 2,8 2,4 0 0 N 10
19.10.2017 04:00:00 3,0 2,6 0 0 N 10
19.10.2017 03:00:00 3,4 2,4 0 0 N 10
19.10.2017 02:00:00 3,8 2,3 0 0 N 10
19.10.2017 01:00:00 4,2 2,2 0 0 N 10
19.10.2017 00:00:00 4,8 2,3 0 0 N 10
18.10.2017 23:00:00 5,8 2,4 0 0 N 10
18.10.2017 22:00:00 6,4 2,3 0 0 N 10
18.10.2017 21:00:00 7,4 2,3 0 0 N 10
18.10.2017 20:00:00 8,2 2,4 0 0 N 10
18.10.2017 19:00:00 9,2 3,0 9 5 S 10
18.10.2017 18:00:00 10,8 3,6 5 3 SSW 10
18.10.2017 17:00:00 12,8 1,2 9 5 S 10
18.10.2017 16:00:00 13,2 -0,1 13 7 S 10
18.10.2017 15:00:00 13,2 1,8 15 8 S 10
18.10.2017 14:00:00 13,2 1,2 13 7 S 10
18.10.2017 13:00:00 13,2 0,9 13 7 S 10
18.10.2017 12:00:00 12,2 0,3 11 6 S 10
18.10.2017 11:00:00 7,8 1,4 0 0 N 10
18.10.2017 10:00:00 5,8 2,1 0 0 N 10
18.10.2017 09:00:00 4,0 1,2 4 2 NNE 10
18.10.2017 08:00:00 4,0 1,2 4 2 NNE 10
18.10.2017 07:00:00 4,4 1,6 8 4 NNE 10
18.10.2017 06:00:00 4,6 1,8 5 3 NE 10
18.10.2017 05:00:00 4,8 2,0 4 2 NNE 10
18.10.2017 04:00:00 - - - - - -
18.10.2017 03:00:00 - - - - - -
18.10.2017 02:00:00 5,8 2,6 0 0 N 10
18.10.2017 01:00:00 5,8 2,4 0 0 N 10
18.10.2017 00:00:00 6,0 2,5 0 0 N 10
17.10.2017 23:00:00 6,8 3,0 0 0 N 10
17.10.2017 22:00:00 7,8 2,9 0 0 N 10
17.10.2017 21:00:00 9,0 3,2 4 2 NNE 10
17.10.2017 20:00:00 9,6 3,4 0 0 N 10
17.10.2017 19:00:00 11,0 2,8 0 0 N 10
17.10.2017 18:00:00 13,0 3,9 5 3 SSE 10
17.10.2017 17:00:00 13,0 3,7 11 6 SW 10
17.10.2017 16:00:00 14,2 3,4 13 7 SW 10
17.10.2017 15:00:00 14,2 3,4 16 9 SW 10
17.10.2017 14:00:00 15,2 -0,1 11 6 SSW 10
17.10.2017 13:00:00 16,0 1,3 11 6 SSW 10
17.10.2017 12:00:00 14,6 0,8 5 3 NNE 10
17.10.2017 11:00:00 10,4 1,0 8 4 NNE 10
17.10.2017 10:00:00 7,6 2,1 11 6 NNE 10
17.10.2017 09:00:00 5,6 1,7 9 5 NNE 10
17.10.2017 08:00:00 5,6 1,3 8 4 NNE 10
17.10.2017 07:00:00 5,8 1,3 9 5 NNE 10
17.10.2017 06:00:00 6,0 1,7 8 4 NNE 10
17.10.2017 05:00:00 6,6 2,1 9 5 NNE 10
17.10.2017 04:00:00 6,6 1,9 9 5 NNE 10
17.10.2017 03:00:00 6,6 2,5 8 4 NNE 10
17.10.2017 02:00:00 6,8 2,3 9 5 NNE 10
17.10.2017 01:00:00 7,6 1,9 9 5 NNE 10
17.10.2017 00:00:00 7,8 1,9 8 4 NNE 10
16.10.2017 23:00:00 8,2 2,9 11 6 NNE 10
16.10.2017 22:00:00 8,4 2,8 5 3 NNE 10
16.10.2017 21:00:00 9,0 3,0 0 0 N 10
16.10.2017 20:00:00 9,8 2,9 0 0 N 10
16.10.2017 19:00:00 11,6 2,9 0 0 N 10
16.10.2017 18:00:00 13,2 4,1 0 0 N 10
16.10.2017 17:00:00 15,2 2,7 8 4 SW 10
16.10.2017 16:00:00 17,2 4,2 11 6 WSW 10
16.10.2017 15:00:00 17,8 0,9 11 6 S 10
16.10.2017 14:00:00 17,4 2,6 15 8 WSW 10
16.10.2017 13:00:00 18,6 2,0 11 6 WSW 10
16.10.2017 12:00:00 12,2 4,4 8 4 NNE 10
16.10.2017 11:00:00 8,8 3,6 8 4 NNE 10
16.10.2017 10:00:00 6,2 2,7 9 5 NNE 10
16.10.2017 09:00:00 5,8 2,3 9 5 NNE 10
16.10.2017 08:00:00 5,8 2,6 9 5 NNE 10
16.10.2017 07:00:00 6,0 2,5 11 6 NNE 10
16.10.2017 06:00:00 6,0 2,3 11 6 NNE 10
16.10.2017 05:00:00 6,6 2,5 11 6 NNE 10
16.10.2017 04:00:00 7,0 2,9 9 5 NNE 10
16.10.2017 03:00:00 7,0 2,9 8 4 NNE 10
16.10.2017 02:00:00 7,2 3,1 9 5 NNE 10
16.10.2017 01:00:00 7,4 3,1 5 3 NNE 10
16.10.2017 00:00:00 7,4 3,3 5 3 NNE 10
15.10.2017 23:00:00 7,4 3,5 4 2 NNE 10
15.10.2017 22:00:00 8,0 3,7 0 0 N 10
15.10.2017 21:00:00 8,8 3,0 0 0 N 10
15.10.2017 20:00:00 10,4 3,7 0 0 N 10
15.10.2017 19:00:00 11,6 3,1 0 0 N 10

tt = Température de l'air
td = dewpoint
ff = Vitesse du vent
dd = Direction du vent
vv = visibility

stations d'obs. à proximité